Overview Statistics Trail Chart Weather Telemetry Raw packets
 

This is the latest recevied telemetry packets stored in our database for station/object OE3TPB-12. If no packets are shown the sender has not sent any telemetry packets the latest 10 day(s).

Telemetry packets is used to share measurements like repeteater parameters, battery voltage, radiation readings (or any other measurements).

Time Press* Temp.in* Hum* QNH* Temp.out*
1788621126 985.1 hPa 27 C deg 41.3 % 1013.5 hPa 0 C deg
1788573942 985.1 hPa 27 C deg 41.3 % 1013.5 hPa 0 C deg
1788514035 991.4 hPa 26.4 C deg 41.6 % 1020.1 hPa 0 C deg
1788465032 992.2 hPa 25.2 C deg 41.5 % 1021 hPa 0 C deg
1788461410 992.2 hPa 25.2 C deg 41.5 % 1021 hPa 0 C deg
1788439620 992.2 hPa 25.2 C deg 41.5 % 1021 hPa 0 C deg
1788426965 992.2 hPa 25.2 C deg 41.5 % 1021 hPa 0 C deg
1788341607 993.3 hPa 24.6 C deg 41.7 % 1022.2 hPa 0 C deg
1788339793 993.3 hPa 24.6 C deg 41.7 % 1022.2 hPa 0 C deg
1788337988 993.3 hPa 24.6 C deg 41.7 % 1022.2 hPa 0 C deg
1788274469 990.5 hPa 27.6 C deg 44.3 % 1019 hPa 0 C deg
1788187326 987.6 hPa 27.3 C deg 40 % 1016 hPa 0 C deg
1788129248 988.4 hPa 27.3 C deg 38.5 % 1016.9 hPa 0 C deg
1788085713 989.3 hPa 24.2 C deg 44.5 % 1018.1 hPa 0 C deg
1788078507 989.3 hPa 24.2 C deg 44.5 % 1018.1 hPa 0 C deg
1788018528 989.8 hPa 26.4 C deg 42 % 1018.4 hPa 0 C deg
1788005821 989 hPa 26.3 C deg 44.4 % 1017.6 hPa 0 C deg
1787980414 983.9 hPa 29.4 C deg 41.7 % 1012 hPa 0 C deg
1787953188 986.8 hPa 28.1 C deg 39.3 % 1015.1 hPa 0 C deg
1787944112 986.8 hPa 28.1 C deg 39.3 % 1015.1 hPa 0 C deg
1787880593 988.8 hPa 24.6 C deg 49 % 1017.6 hPa 0 C deg
1787847914 988.8 hPa 24.6 C deg 49 % 1017.6 hPa 0 C deg
1787844281 988.8 hPa 24.6 C deg 49 % 1017.6 hPa 0 C deg
*Used Equation Coefficients:
Press: 0, 1, 0
Temp.in: 0, 1, 0
Hum: 0, 1, 0
QNH: 0, 1, 0
Temp.out: 0, 1, 0

  • The parameter names for the analog channels will be Value1, Value2, Value3 (up to Value5) if station has not sent a PARAM-packet that specifies the parameter names for each analog channel.
  • Each analog value is a decimal number between 000 and 255 (according to APRS specifications). The receiver use the telemetry equation coefficientsto to restore the original sensor values. If no EQNS-packet with equation coefficients is sent we will show the values as is (this corresponds to the equation coefficients a=0, b=1 and c=0).
    The sent equation coefficients is used in the equation: a * value2 + b * value + c.
  • The units for the analog values will not be shown if station has not sent a UNIT-packet specifying what unit's to use.
  • The parameter names for the digital bits will be Bit1, Bit2, Bit3 (up to Bit8) if station has not sent a PARAM-packet that specifies the parameter names for each digital bit.
  • All bit labels will be named "On" if station has not sent a UNIT-packet that specifies the label of each bit.
  • A bit is considered to be On when the bit is 1 if station has not sent a BITS-packet that specifies another "Bit sense" (a BITS-packet specify the state of the bits that match the BIT labels)